Betancuria — EAMH — position and weather

sailwx.info

Track history (hours):
 
Tides and Currents Weather Stations Pressure Air Temp Water Temp Dewpoint Dewpoint Depression Visibility Wind Speed Wind Dir Waves Ship Positions

Betancuria

Last reported at 2014-Dec-15 13:15 UTC. Time now 2014-Dec-19 12:57 UTC.
Position N 36°05' W 005°21'.

Length 141 m; draft 4.7 m.

Type: Ship. MMSI: 224471000.

Date/timePositionNaut miles runAvg speedWind from/ knotsBaromVisibWave heightAir tempDewpointWater temp
2014-Dec-15 13:15N 36°05' W 005°21'4 0.6
2014-Dec-15 06:29N 36°08' W 005°25'7 7.8
2014-Dec-15 05:31N 36°01' W 005°24'258 9.1
2014-Dec-14 01:12N 38°19' W 009°57'711.3
2014-Dec-14 00:32N 38°26' W 009°60'1111.1
2014-Dec-13 23:32N 38°37' W 010°03'1110.8
2014-Dec-13 22:33N 38°48' W 010°05'1311.1
2014-Dec-13 21:22N 39°01' W 010°05'911.2
2014-Dec-13 20:32N 39°10' W 010°05'  
2014-Dec-07 09:10N 43°38' W 005°05'2212.5
2014-Dec-07 07:22N 43°41' W 005°36'1012.1
2014-Dec-07 06:33N 43°42' W 005°49'1211.7
2014-Dec-07 05:32N 43°44' W 006°05'  
Track history (hours):
 
Tides and Currents Weather Stations Pressure Air Temp Water Temp Dewpoint Dewpoint Depression Visibility Wind Speed Wind Dir Waves Ship Positions

Betancuria

Last reported at 2014-Dec-15 13:15 UTC. Time now 2014-Dec-19 12:57 UTC.
Position N 36°05' W 005°21'.

Length 141 m; draft 4.7 m.

Type: Ship. MMSI: 224471000.

Date/timePositionNaut miles runAvg speedWind from/ knotsBaromVisibWave heightAir tempDewpointWater temp
2014-Dec-15 13:15N 36°05' W 005°21'4 0.6
2014-Dec-15 06:29N 36°08' W 005°25'7 7.8
2014-Dec-15 05:31N 36°01' W 005°24'258 9.1
2014-Dec-14 01:12N 38°19' W 009°57'711.3
2014-Dec-14 00:32N 38°26' W 009°60'1111.1
2014-Dec-13 23:32N 38°37' W 010°03'1110.8
2014-Dec-13 22:33N 38°48' W 010°05'1311.1
2014-Dec-13 21:22N 39°01' W 010°05'911.2
2014-Dec-13 20:32N 39°10' W 010°05'  
2014-Dec-07 09:10N 43°38' W 005°05'2212.5
2014-Dec-07 07:22N 43°41' W 005°36'1012.1
2014-Dec-07 06:33N 43°42' W 005°49'1211.7
2014-Dec-07 05:32N 43°44' W 006°05'  

Dump ship's entire track history